Time;durP1;ratioP1;P1;durP2;ratioP2;P2;SDS_P1;SDS_P2;PMS_P1;PMS_P2;Temp;Humidity;BMP_temperature;BMP_pressure;BME280_temperature;BME280_humidity;BME280_pressure;Samples;Min_cycle;Max_cycle;Signal;HPM_P1;HPM_P2
2023/10/11 00:01:46;;;;;;;9.63;3.72;;;;;;;;;;5012828;28;20108;-74
2023/10/11 00:04:23;;;;;;;9.10;3.78;;;;;;;;;;5012975;28;20433;-73
2023/10/11 00:06:54;;;;;;;8.40;3.60;;;;;;;;;;5012941;28;20504;-74
2023/10/11 00:09:34;;;;;;;10.05;3.88;;;;;;;;;;5013175;28;20149;-74
2023/10/11 00:12:00;;;;;;;8.70;3.70;;;;;;;;;;5013061;28;20018;-74
2023/10/11 00:14:25;;;;;;;9.48;3.85;;;;;;;;;;5011619;28;20032;-74
2023/10/11 00:16:53;;;;;;;8.00;3.20;;;;;;;;;;5012888;28;20378;-74
2023/10/11 00:19:18;;;;;;;9.00;3.60;;;;;;;;;;5013527;28;20267;-74
2023/10/11 00:21:43;;;;;;;8.48;3.38;;;;;;;;;;5016725;28;20436;-74
2023/10/11 00:24:09;;;;;;;9.43;3.60;;;;;;;;;;5016811;28;20032;-74
2023/10/11 00:26:34;;;;;;;7.88;3.30;;;;;;;;;;5015246;28;20112;-74
2023/10/11 00:29:00;;;;;;;6.10;3.38;;;;;;;;;;5016504;28;20026;-74
2023/10/11 00:31:26;;;;;;;8.50;3.33;;;;;;;;;;5016432;28;20381;-74
2023/10/11 00:33:53;;;;;;;8.05;3.60;;;;;;;;;;5016743;28;20109;-73
2023/10/11 00:36:26;;;;;;;6.32;3.33;;;;;;;;;;5016465;28;20026;-74
2023/10/11 00:38:51;;;;;;;9.15;3.35;;;;;;;;;;5016634;28;20026;-74
2023/10/11 00:41:20;;;;;;;7.25;3.35;;;;;;;;;;5016145;28;20370;-73
2023/10/11 00:43:49;;;;;;;6.78;3.40;;;;;;;;;;5016535;28;20030;-74
2023/10/11 00:46:18;;;;;;;11.98;3.35;;;;;;;;;;5016471;28;20392;-74
2023/10/11 00:48:55;;;;;;;9.13;3.65;;;;;;;;;;5016370;28;20037;-74
2023/10/11 00:51:26;;;;;;;6.72;3.70;;;;;;;;;;5016027;28;20025;-73
2023/10/11 00:53:52;;;;;;;8.65;3.58;;;;;;;;;;5016157;28;20045;-74
2023/10/11 00:56:18;;;;;;;11.05;3.60;;;;;;;;;;5016497;28;20516;-73
2023/10/11 00:58:45;;;;;;;6.15;3.50;;;;;;;;;;5016044;28;20053;-73
2023/10/11 01:01:11;;;;;;;7.05;3.85;;;;;;;;;;5015899;28;20112;-73
2023/10/11 01:03:37;;;;;;;6.90;3.42;;;;;;;;;;5015822;28;20033;-73
2023/10/11 01:06:04;;;;;;;8.40;3.83;;;;;;;;;;5016053;28;20030;-73
2023/10/11 01:08:38;;;;;;;9.75;3.80;;;;;;;;;;5015851;28;20076;-72
2023/10/11 01:11:13;;;;;;;9.85;3.78;;;;;;;;;;5014210;28;20029;-72
2023/10/11 01:13:40;;;;;;;7.38;3.97;;;;;;;;;;5015965;28;20026;-74
2023/10/11 01:16:10;;;;;;;10.77;4.05;;;;;;;;;;5015050;28;20370;-73
2023/10/11 01:18:40;;;;;;;6.72;3.60;;;;;;;;;;5015633;28;20041;-73
2023/10/11 01:21:07;;;;;;;13.18;4.15;;;;;;;;;;5015803;28;20033;-74
2023/10/11 01:23:35;;;;;;;11.20;4.45;;;;;;;;;;5015472;28;20037;-73
2023/10/11 01:26:06;;;;;;;10.63;4.10;;;;;;;;;;5015699;28;20026;-74
2023/10/11 01:28:33;;;;;;;6.70;4.05;;;;;;;;;;5015724;28;20022;-74
2023/10/11 01:30:59;;;;;;;9.38;4.15;;;;;;;;;;5015066;28;20429;-74
2023/10/11 01:33:24;;;;;;;9.00;3.90;;;;;;;;;;5014069;28;20030;-74
2023/10/11 01:35:50;;;;;;;15.55;4.28;;;;;;;;;;5015249;28;20492;-74
2023/10/11 01:38:17;;;;;;;11.48;4.75;;;;;;;;;;5015530;28;20558;-74
2023/10/11 01:40:43;;;;;;;10.20;4.63;;;;;;;;;;5013717;28;20034;-75
2023/10/11 01:43:09;;;;;;;8.77;4.75;;;;;;;;;;5013857;28;20029;-75
2023/10/11 01:45:34;;;;;;;6.93;4.50;;;;;;;;;;5015033;28;20018;-74
2023/10/11 01:48:00;;;;;;;7.05;4.68;;;;;;;;;;5013764;28;20034;-74
2023/10/11 01:50:28;;;;;;;8.80;4.30;;;;;;;;;;5014966;28;20022;-74
2023/10/11 01:52:53;;;;;;;7.20;4.57;;;;;;;;;;5013684;28;20026;-74
2023/10/11 01:55:19;;;;;;;11.00;4.65;;;;;;;;;;5013620;28;20032;-74
2023/10/11 01:57:50;;;;;;;8.60;4.72;;;;;;;;;;5015123;28;20101;-74
2023/10/11 02:00:17;;;;;;;9.30;4.55;;;;;;;;;;5015020;28;20033;-74
2023/10/11 02:02:47;;;;;;;6.70;4.45;;;;;;;;;;5014723;28;20028;-74
2023/10/11 02:05:13;;;;;;;8.38;4.82;;;;;;;;;;5014740;28;20113;-74
2023/10/11 02:07:39;;;;;;;9.90;4.53;;;;;;;;;;5014943;28;20057;-74
2023/10/11 02:10:15;;;;;;;8.40;4.50;;;;;;;;;;5013344;28;20026;-74
2023/10/11 02:12:46;;;;;;;9.85;4.80;;;;;;;;;;5014719;28;20440;-74
2023/10/11 02:15:21;;;;;;;8.68;4.80;;;;;;;;;;5014561;28;20025;-73
2023/10/11 02:17:51;;;;;;;10.15;4.82;;;;;;;;;;5014613;28;20477;-73
2023/10/11 02:20:20;;;;;;;10.38;5.28;;;;;;;;;;5014345;28;20025;-73
2023/10/11 02:22:52;;;;;;;7.97;4.85;;;;;;;;;;5013047;28;20021;-73
2023/10/11 02:25:25;;;;;;;10.98;5.13;;;;;;;;;;5014498;28;20025;-73
2023/10/11 02:27:51;;;;;;;11.18;5.35;;;;;;;;;;5014571;28;20034;-73
2023/10/11 02:30:21;;;;;;;11.45;5.13;;;;;;;;;;5014247;28;20389;-73
2023/10/11 02:33:07;;;;;;;9.18;5.60;;;;;;;;;;5012833;28;20083;-73
2023/10/11 02:35:49;;;;;;;7.90;5.03;;;;;;;;;;5014735;28;20026;-73
2023/10/11 02:38:21;;;;;;;8.90;5.70;;;;;;;;;;5014425;28;20097;-73
2023/10/11 02:40:54;;;;;;;15.73;7.18;;;;;;;;;;5013630;28;20018;-73
2023/10/11 02:43:20;;;;;;;11.52;6.65;;;;;;;;;;5013966;28;20026;-75
2023/10/11 02:45:45;;;;;;;13.23;8.02;;;;;;;;;;5014324;28;20373;-73
2023/10/11 02:48:11;;;;;;;13.88;7.07;;;;;;;;;;5013964;28;20034;-73
2023/10/11 02:50:36;;;;;;;15.93;7.25;;;;;;;;;;5012623;28;20401;-73
2023/10/11 02:53:05;;;;;;;11.23;6.15;;;;;;;;;;5013866;28;20101;-73
2023/10/11 02:55:30;;;;;;;14.02;6.32;;;;;;;;;;5014174;28;20029;-72
2023/10/11 02:58:08;;;;;;;13.55;6.65;;;;;;;;;;5012508;28;20503;-74
2023/10/11 03:00:34;;;;;;;9.18;5.95;;;;;;;;;;5012406;28;20034;-73
2023/10/11 03:03:00;;;;;;;11.38;5.45;;;;;;;;;;5014039;28;20029;-73
2023/10/11 03:05:29;;;;;;;9.82;6.00;;;;;;;;;;5012694;28;20030;-74
2023/10/11 03:08:13;;;;;;;10.90;6.00;;;;;;;;;;5012339;28;20026;-74
2023/10/11 03:10:56;;;;;;;13.23;6.30;;;;;;;;;;5013641;28;20072;-73
2023/10/11 03:13:29;;;;;;;10.85;5.50;;;;;;;;;;5013517;28;20036;-72
2023/10/11 03:15:55;;;;;;;13.52;5.60;;;;;;;;;;5013661;28;20072;-72
2023/10/11 03:18:31;;;;;;;14.68;5.93;;;;;;;;;;5013438;28;20088;-72
2023/10/11 03:21:07;;;;;;;12.40;5.90;;;;;;;;;;5013388;28;20389;-73
2023/10/11 03:23:45;;;;;;;9.90;5.68;;;;;;;;;;5013365;28;20511;-74
2023/10/11 03:26:19;;;;;;;9.52;5.75;;;;;;;;;;5013528;28;20489;-74
2023/10/11 03:28:45;;;;;;;9.65;5.75;;;;;;;;;;5012177;28;20025;-71
2023/10/11 03:31:12;;;;;;;9.80;5.18;;;;;;;;;;5011950;28;20447;-73
2023/10/11 03:33:41;;;;;;;12.35;5.40;;;;;;;;;;5013061;28;20469;-73
2023/10/11 03:36:18;;;;;;;9.40;5.43;;;;;;;;;;5013179;28;20030;-73
2023/10/11 03:38:51;;;;;;;14.30;5.88;;;;;;;;;;5011985;28;20028;-73
2023/10/11 03:41:29;;;;;;;10.35;5.50;;;;;;;;;;5013291;28;20064;-73
2023/10/11 03:44:00;;;;;;;14.15;5.70;;;;;;;;;;5013138;28;20030;-73
2023/10/11 03:46:28;;;;;;;11.68;5.72;;;;;;;;;;5011807;28;20073;-73
2023/10/11 03:49:14;;;;;;;8.23;5.60;;;;;;;;;;5013029;28;20018;-73
2023/10/11 03:51:43;;;;;;;10.25;5.55;;;;;;;;;;5013105;28;20041;-73
2023/10/11 03:54:13;;;;;;;13.57;6.00;;;;;;;;;;5015375;28;20032;-73
2023/10/11 03:56:45;;;;;;;8.25;5.63;;;;;;;;;;5017405;28;20047;-73
2023/10/11 03:59:12;;;;;;;7.78;5.28;;;;;;;;;;5017313;28;20477;-74
2023/10/11 04:01:37;;;;;;;9.02;5.45;;;;;;;;;;5016840;28;20026;-73
2023/10/11 04:04:05;;;;;;;14.10;5.72;;;;;;;;;;5016880;28;20088;-73
2023/10/11 04:06:32;;;;;;;10.85;5.65;;;;;;;;;;5017005;28;20104;-73
2023/10/11 04:09:02;;;;;;;12.40;5.35;;;;;;;;;;5016895;28;20401;-73
2023/10/11 04:11:37;;;;;;;10.57;5.32;;;;;;;;;;5015487;28;20042;-73
2023/10/11 04:14:03;;;;;;;9.93;5.40;;;;;;;;;;5016884;28;20459;-73
2023/10/11 04:16:29;;;;;;;10.90;5.68;;;;;;;;;;5016691;28;20029;-74
2023/10/11 04:18:54;;;;;;;11.75;5.57;;;;;;;;;;5016725;28;20049;-73
2023/10/11 04:21:26;;;;;;;11.23;5.85;;;;;;;;;;5017022;28;20492;-73
2023/10/11 04:23:55;;;;;;;9.02;5.32;;;;;;;;;;5017183;28;20017;-74
2023/10/11 04:28:58;;;;;;;12.05;6.10;;;;;;;;;;5016913;28;20030;-74
2023/10/11 04:31:31;;;;;;;15.50;6.15;;;;;;;;;;5016564;28;20420;-73
2023/10/11 04:33:59;;;;;;;14.00;6.45;;;;;;;;;;5016540;28;20030;-72
2023/10/11 04:36:24;;;;;;;16.15;5.50;;;;;;;;;;5016420;28;20038;-74
2023/10/11 04:38:50;;;;;;;12.07;6.13;;;;;;;;;;5016380;28;20137;-74
2023/10/11 04:41:20;;;;;;;15.27;6.05;;;;;;;;;;5016250;28;20472;-74
2023/10/11 04:44:04;;;;;;;12.18;5.53;;;;;;;;;;5016136;28;20030;-74
2023/10/11 04:46:30;;;;;;;9.75;5.85;;;;;;;;;;5016212;28;20041;-74
2023/10/11 04:49:07;;;;;;;16.33;6.38;;;;;;;;;;5016463;28;20029;-74
2023/10/11 04:51:39;;;;;;;13.93;5.97;;;;;;;;;;5016535;28;20083;-73
2023/10/11 04:54:13;;;;;;;11.60;5.65;;;;;;;;;;5016069;28;20021;-73
2023/10/11 04:59:13;;;;;;;9.00;5.68;;;;;;;;;;5016538;28;20030;-73
2023/10/11 05:04:15;;;;;;;9.73;6.00;;;;;;;;;;5015529;28;20034;-74
2023/10/11 05:06:44;;;;;;;10.15;5.30;;;;;;;;;;5016033;28;20046;-74
2023/10/11 05:09:21;;;;;;;8.98;5.45;;;;;;;;;;5015688;28;20037;-73
2023/10/11 05:11:50;;;;;;;13.95;5.28;;;;;;;;;;5014296;28;20025;-74
2023/10/11 05:14:36;;;;;;;13.93;5.47;;;;;;;;;;5014273;28;20029;-74
2023/10/11 05:19:36;;;;;;;9.90;5.28;;;;;;;;;;5015860;28;20057;-73
2023/10/11 05:22:03;;;;;;;10.40;5.47;;;;;;;;;;5015483;28;20053;-72
2023/10/11 05:24:44;;;;;;;10.10;5.57;;;;;;;;;;5015430;28;20258;-72
2023/10/11 05:27:25;;;;;;;9.75;5.53;;;;;;;;;;5015733;28;20091;-73
2023/10/11 05:32:41;;;;;;;9.32;5.35;;;;;;;;;;5015208;28;20061;-73
2023/10/11 05:35:24;;;;;;;7.85;4.90;;;;;;;;;;5015764;28;20448;-73
2023/10/11 05:51:31;;;;;;;9.88;5.07;;;;;;;;;;5015501;28;20025;-74
2023/10/11 05:53:59;;;;;;;10.80;4.90;;;;;;;;;;5013883;28;20036;-74
2023/10/11 05:56:25;;;;;;;10.25;5.32;;;;;;;;;;5014841;28;20029;-74
2023/10/11 05:58:54;;;;;;;9.75;5.15;;;;;;;;;;5015126;28;20025;-73
2023/10/11 06:01:23;;;;;;;20.83;5.70;;;;;;;;;;5014633;28;20107;-72
2023/10/11 06:03:55;;;;;;;12.18;5.55;;;;;;;;;;5015283;28;20413;-74
2023/10/11 06:06:32;;;;;;;10.10;4.97;;;;;;;;;;5014688;28;20105;-74
2023/10/11 06:08:57;;;;;;;9.10;5.05;;;;;;;;;;5014958;28;20495;-74
2023/10/11 06:11:29;;;;;;;9.68;5.55;;;;;;;;;;5014601;28;20026;-74
2023/10/11 06:13:54;;;;;;;13.60;5.32;;;;;;;;;;5014645;28;20030;-74
2023/10/11 06:16:22;;;;;;;10.65;5.70;;;;;;;;;;5012404;28;20033;-73
2023/10/11 06:18:57;;;;;;;12.35;5.38;;;;;;;;;;5014580;28;20061;-74
2023/10/11 06:21:32;;;;;;;13.30;5.60;;;;;;;;;;5013422;28;20149;-73
2023/10/11 06:24:04;;;;;;;12.70;5.00;;;;;;;;;;5014724;28;20033;-74
2023/10/11 06:26:52;;;;;;;10.13;5.43;;;;;;;;;;5014724;28;20118;-72
2023/10/11 06:29:22;;;;;;;10.85;5.13;;;;;;;;;;5014228;28;20407;-74
2023/10/11 06:31:47;;;;;;;10.50;5.60;;;;;;;;;;5012737;28;20032;-74
2023/10/11 06:34:17;;;;;;;14.23;5.55;;;;;;;;;;5014110;28;20109;-74
2023/10/11 06:36:51;;;;;;;17.45;5.60;;;;;;;;;;5014142;28;20113;-78
2023/10/11 06:42:35;;;;;;;16.33;5.57;;;;;;;;;;5015838;28;20057;-78
2023/10/11 06:45:05;;;;;;;13.77;5.28;;;;;;;;;;4998615;28;20034;-76
2023/10/11 06:47:33;;;;;;;14.27;5.07;;;;;;;;;;5014757;28;20060;-77
2023/10/11 06:50:10;;;;;;;9.27;5.20;;;;;;;;;;5016213;28;20026;-76
2023/10/11 06:52:36;;;;;;;9.57;5.10;;;;;;;;;;5013870;28;20046;-75
2023/10/11 06:57:51;;;;;;;11.15;4.63;;;;;;;;;;5016030;28;20041;-77
2023/10/11 07:00:22;;;;;;;11.35;4.78;;;;;;;;;;5015510;28;20026;-77
2023/10/11 07:02:50;;;;;;;11.15;4.80;;;;;;;;;;5014512;28;20025;-77
2023/10/11 07:05:19;;;;;;;12.75;4.80;;;;;;;;;;5014347;28;20396;-77
2023/10/11 07:07:47;;;;;;;13.27;5.25;;;;;;;;;;5014677;28;20030;-81
2023/10/11 07:10:28;;;;;;;11.70;4.72;;;;;;;;;;5016195;28;20079;-83
2023/10/11 07:13:05;;;;;;;14.13;5.00;;;;;;;;;;5015639;28;20463;-75
2023/10/11 07:15:46;;;;;;;11.40;4.55;;;;;;;;;;5012529;28;20026;-76
2023/10/11 07:18:27;;;;;;;12.05;4.82;;;;;;;;;;5014537;28;20416;-75
2023/10/11 07:21:07;;;;;;;8.65;4.82;;;;;;;;;;5012301;28;20026;-74
2023/10/11 07:23:35;;;;;;;11.85;5.03;;;;;;;;;;5013388;28;20022;-74
2023/10/11 07:28:51;;;;;;;19.08;5.00;;;;;;;;;;5013536;28;20077;-74
2023/10/11 07:31:22;;;;;;;11.13;5.07;;;;;;;;;;5013603;28;20053;-75
2023/10/11 07:33:55;;;;;;;9.95;4.68;;;;;;;;;;5013066;28;20037;-74
2023/10/11 07:36:22;;;;;;;16.67;5.32;;;;;;;;;;5012463;28;20022;-75
2023/10/11 07:39:00;;;;;;;11.35;5.30;;;;;;;;;;5011792;28;20036;-75
2023/10/11 07:41:28;;;;;;;10.45;4.63;;;;;;;;;;5010330;28;20026;-76
2023/10/11 07:43:57;;;;;;;10.38;5.00;;;;;;;;;;5011655;28;20029;-77
2023/10/11 07:46:23;;;;;;;11.18;4.43;;;;;;;;;;5011268;28;20032;-76
2023/10/11 07:48:54;;;;;;;10.90;4.85;;;;;;;;;;5009954;28;20029;-76
2023/10/11 07:51:22;;;;;;;11.32;4.75;;;;;;;;;;5010684;28;20485;-76
2023/10/11 07:53:47;;;;;;;10.20;5.10;;;;;;;;;;5009531;28;20053;-76
2023/10/11 07:56:16;;;;;;;9.13;4.57;;;;;;;;;;5010415;28;20026;-75
2023/10/11 07:58:45;;;;;;;9.18;4.63;;;;;;;;;;5012993;28;20801;-75
2023/10/11 08:01:42;;;;;;;9.07;4.18;;;;;;;;;;5012043;28;20030;-75
2023/10/11 08:03:57;;;;;;;9.15;4.88;;;;;;;;;;5015914;28;20045;-77
2023/10/11 08:06:24;;;;;;;9.93;4.20;;;;;;;;;;5012864;28;20045;-77
2023/10/11 08:08:59;;;;;;;11.27;4.40;;;;;;;;;;5012650;28;20368;-77
2023/10/11 08:11:36;;;;;;;13.27;4.45;;;;;;;;;;5010990;28;20026;-77
2023/10/11 08:14:02;;;;;;;8.10;4.05;;;;;;;;;;5018526;28;20026;-78
2023/10/11 08:16:33;;;;;;;8.77;4.40;;;;;;;;;;5024156;28;20108;-81
2023/10/11 08:18:58;;;;;;;13.65;4.43;;;;;;;;;;5024239;28;20018;-79
2023/10/11 08:21:23;;;;;;;11.50;4.75;;;;;;;;;;5026067;28;20044;-78
2023/10/11 08:23:50;;;;;;;10.73;4.20;;;;;;;;;;5024669;28;20097;-78
2023/10/11 08:26:17;;;;;;;9.75;3.95;;;;;;;;;;5024763;28;20021;-78
2023/10/11 08:28:48;;;;;;;10.13;4.40;;;;;;;;;;5026452;28;20101;-78
2023/10/11 08:31:35;;;;;;;7.90;4.30;;;;;;;;;;5025812;28;20121;-77
2023/10/11 08:34:01;;;;;;;10.98;3.85;;;;;;;;;;5023408;28;20064;-79
2023/10/11 08:36:29;;;;;;;10.10;4.18;;;;;;;;;;5016335;28;20500;-77
2023/10/11 08:38:56;;;;;;;9.98;4.15;;;;;;;;;;5014931;28;20030;-76
2023/10/11 08:41:22;;;;;;;7.85;4.90;;;;;;;;;;5015070;28;20029;-77
2023/10/11 08:43:49;;;;;;;10.45;5.10;;;;;;;;;;5015693;28;20065;-77
2023/10/11 08:46:18;;;;;;;8.98;4.82;;;;;;;;;;5015891;28;20075;-77
2023/10/11 08:48:49;;;;;;;12.48;4.90;;;;;;;;;;5017568;28;20034;-76
2023/10/11 08:51:17;;;;;;;8.25;4.90;;;;;;;;;;5016126;28;20017;-76
2023/10/11 08:54:00;;;;;;;9.02;4.82;;;;;;;;;;5016468;28;20033;-76
2023/10/11 08:56:25;;;;;;;12.47;4.73;;;;;;;;;;5015003;28;20459;-77
2023/10/11 08:58:53;;;;;;;8.88;4.55;;;;;;;;;;5016214;28;20108;-77
2023/10/11 09:01:24;;;;;;;18.95;5.22;;;;;;;;;;5015730;28;20026;-76
2023/10/11 09:04:03;;;;;;;11.77;4.32;;;;;;;;;;5017671;28;20047;-78
2023/10/11 09:06:31;;;;;;;12.10;4.60;;;;;;;;;;5016927;28;20028;-77
2023/10/11 09:09:00;;;;;;;10.38;4.60;;;;;;;;;;5019800;28;20025;-77
2023/10/11 09:11:34;;;;;;;11.98;4.45;;;;;;;;;;5016632;28;20018;-79
2023/10/11 09:14:22;;;;;;;8.25;4.25;;;;;;;;;;5016532;28;20113;-82
2023/10/11 09:16:51;;;;;;;9.48;4.35;;;;;;;;;;5016583;28;20063;-77
2023/10/11 09:19:19;;;;;;;7.05;4.18;;;;;;;;;;5015873;28;20021;-78
2023/10/11 09:22:01;;;;;;;12.13;4.32;;;;;;;;;;5017304;28;20030;-77
2023/10/11 09:24:37;;;;;;;8.55;4.15;;;;;;;;;;5014709;28;20124;-77
2023/10/11 09:29:42;;;;;;;9.20;3.75;;;;;;;;;;5015485;28;20492;-77
2023/10/11 09:32:09;;;;;;;10.25;4.03;;;;;;;;;;5014591;28;20121;-75
2023/10/11 09:34:34;;;;;;;14.75;4.60;;;;;;;;;;5013353;28;20044;-75
2023/10/11 09:37:00;;;;;;;9.73;3.70;;;;;;;;;;5013514;28;20397;-76
2023/10/11 09:39:29;;;;;;;7.20;3.97;;;;;;;;;;5014970;28;20136;-76
2023/10/11 09:42:04;;;;;;;11.32;3.97;;;;;;;;;;5012901;28;20026;-76
2023/10/11 09:44:37;;;;;;;8.20;3.28;;;;;;;;;;5015043;28;20101;-76
2023/10/11 09:47:04;;;;;;;10.23;3.60;;;;;;;;;;5015627;28;20500;-76
2023/10/11 09:49:34;;;;;;;7.85;3.30;;;;;;;;;;5013724;28;20026;-76
2023/10/11 09:52:07;;;;;;;10.68;3.83;;;;;;;;;;5015277;28;20025;-76
2023/10/11 09:54:34;;;;;;;10.05;3.58;;;;;;;;;;5015256;28;20032;-76
2023/10/11 09:57:13;;;;;;;8.98;3.33;;;;;;;;;;5014945;28;20384;-76
2023/10/11 10:00:00;;;;;;;5.13;2.88;;;;;;;;;;5014949;28;20057;-76
2023/10/11 10:02:32;;;;;;;6.55;2.70;;;;;;;;;;5013317;28;20515;-75
2023/10/11 10:04:58;;;;;;;8.77;2.95;;;;;;;;;;5014628;28;20167;-75
2023/10/11 10:07:42;;;;;;;4.75;2.55;;;;;;;;;;5014949;28;20502;-74
2023/10/11 10:10:12;;;;;;;5.72;2.60;;;;;;;;;;5013069;28;20079;-75
2023/10/11 10:13:00;;;;;;;6.43;2.50;;;;;;;;;;5014766;28;20104;-76
2023/10/11 10:15:33;;;;;;;6.53;3.05;;;;;;;;;;5014511;28;20103;-75
2023/10/11 10:18:01;;;;;;;5.00;2.53;;;;;;;;;;5014441;28;20097;-75
2023/10/11 10:20:33;;;;;;;4.93;2.17;;;;;;;;;;5013318;28;20026;-75
2023/10/11 10:23:16;;;;;;;6.72;2.30;;;;;;;;;;5014224;28;20026;-74
2023/10/11 10:25:48;;;;;;;6.70;2.38;;;;;;;;;;5014309;28;20426;-75
2023/10/11 10:28:45;;;;;;;12.13;2.58;;;;;;;;;;5014452;28;20042;-74
2023/10/11 10:31:13;;;;;;;5.75;2.53;;;;;;;;;;5014263;28;20021;-75
2023/10/11 10:33:40;;;;;;;6.40;2.65;;;;;;;;;;5012783;28;20037;-76
2023/10/11 10:36:17;;;;;;;6.55;2.80;;;;;;;;;;5014510;28;20045;-74
2023/10/11 10:39:00;;;;;;;8.93;2.60;;;;;;;;;;5014002;28;20057;-74
2023/10/11 10:41:33;;;;;;;7.77;2.53;;;;;;;;;;5013860;28;20026;-75
2023/10/11 10:44:04;;;;;;;11.35;3.22;;;;;;;;;;5014185;28;20080;-76
2023/10/11 10:46:31;;;;;;;6.00;2.40;;;;;;;;;;5014189;28;20034;-76
2023/10/11 10:48:56;;;;;;;5.25;2.50;;;;;;;;;;5013930;28;20062;-76
2023/10/11 10:51:25;;;;;;;5.43;2.40;;;;;;;;;;5012431;28;20038;-75
2023/10/11 10:53:50;;;;;;;5.50;2.83;;;;;;;;;;5013899;28;20028;-76
2023/10/11 10:56:19;;;;;;;9.32;3.58;;;;;;;;;;5012455;28;20437;-76
2023/10/11 10:58:44;;;;;;;8.10;3.03;;;;;;;;;;5013754;28;20030;-76
2023/10/11 11:01:10;;;;;;;7.17;2.87;;;;;;;;;;5012242;28;20025;-76
2023/10/11 11:03:35;;;;;;;5.20;2.80;;;;;;;;;;5012033;28;20263;-76
2023/10/11 11:06:02;;;;;;;9.52;2.72;;;;;;;;;;5014211;28;20825;-76
2023/10/11 11:08:31;;;;;;;8.77;2.60;;;;;;;;;;5013835;28;20485;-75
2023/10/11 11:11:14;;;;;;;7.57;2.55;;;;;;;;;;5013012;28;20026;-76
2023/10/11 11:13:40;;;;;;;4.57;2.47;;;;;;;;;;5013549;28;20056;-76
2023/10/11 11:16:09;;;;;;;8.23;2.92;;;;;;;;;;5013735;28;20065;-75
2023/10/11 11:18:37;;;;;;;9.82;2.33;;;;;;;;;;5013410;28;20021;-76
2023/10/11 11:21:25;;;;;;;5.70;2.25;;;;;;;;;;5013143;28;20493;-76
2023/10/11 11:23:52;;;;;;;8.45;2.20;;;;;;;;;;5013310;28;20060;-76
2023/10/11 11:26:23;;;;;;;7.93;2.42;;;;;;;;;;5013202;28;20030;-76
2023/10/11 11:29:08;;;;;;;6.65;2.22;;;;;;;;;;5013558;28;20054;-76
2023/10/11 11:31:52;;;;;;;8.88;2.65;;;;;;;;;;5013523;28;20033;-75
2023/10/11 11:34:27;;;;;;;;;;;;;;;;;;5013615;28;20022;-75
2023/10/11 11:37:00;;;;;;;7.22;2.22;;;;;;;;;;5013252;28;19916;-76
2023/10/11 11:41:53;;;;;;;14.15;2.25;;;;;;;;;;5013197;28;20545;-75
2023/10/11 11:44:20;;;;;;;8.60;2.40;;;;;;;;;;5011756;28;20028;-75
2023/10/11 11:46:53;;;;;;;7.80;2.25;;;;;;;;;;5013361;28;20033;-76
2023/10/11 11:49:23;;;;;;;3.97;2.40;;;;;;;;;;5013282;28;20489;-75
2023/10/11 11:51:52;;;;;;;11.05;2.50;;;;;;;;;;5012901;28;20037;-75
2023/10/11 11:54:19;;;;;;;5.32;2.35;;;;;;;;;;5012857;28;20493;-75
2023/10/11 11:56:46;;;;;;;7.53;2.60;;;;;;;;;;5011634;28;20029;-76
2023/10/11 11:59:17;;;;;;;6.63;2.22;;;;;;;;;;5012861;28;20025;-75
2023/10/11 12:01:45;;;;;;;5.35;2.15;;;;;;;;;;5011269;28;20041;-75
2023/10/11 12:04:10;;;;;;;6.57;2.67;;;;;;;;;;5012738;28;20025;-75
2023/10/11 12:06:36;;;;;;;4.68;2.20;;;;;;;;;;5013049;28;20125;-75
2023/10/11 12:09:04;;;;;;;9.63;2.63;;;;;;;;;;5011787;28;20077;-75
2023/10/11 12:11:31;;;;;;;6.55;2.65;;;;;;;;;;5012730;28;20022;-75
2023/10/11 12:14:03;;;;;;;7.60;2.65;;;;;;;;;;5012887;28;20025;-75
2023/10/11 12:16:30;;;;;;;6.55;2.70;;;;;;;;;;5016863;28;20102;-76
2023/10/11 12:18:59;;;;;;;6.78;2.33;;;;;;;;;;5016943;28;20030;-75
2023/10/11 12:21:25;;;;;;;4.63;2.35;;;;;;;;;;5016591;28;20030;-75
2023/10/11 12:23:53;;;;;;;7.35;2.28;;;;;;;;;;5016821;28;20052;-75
2023/10/11 12:26:20;;;;;;;6.22;2.28;;;;;;;;;;5015429;28;20030;-76
2023/10/11 12:28:48;;;;;;;7.20;2.30;;;;;;;;;;5016755;28;20477;-75
2023/10/11 12:31:16;;;;;;;7.93;2.28;;;;;;;;;;5016544;28;20033;-75
2023/10/11 12:33:42;;;;;;;7.35;2.28;;;;;;;;;;5016378;28;20017;-75
2023/10/11 12:36:10;;;;;;;5.82;2.60;;;;;;;;;;5016594;28;20024;-75
2023/10/11 12:38:39;;;;;;;7.03;2.25;;;;;;;;;;5016603;28;20026;-75
2023/10/11 12:41:06;;;;;;;8.82;2.42;;;;;;;;;;5014937;28;20029;-75
2023/10/11 12:43:32;;;;;;;5.00;2.20;;;;;;;;;;5016101;28;20128;-75
2023/10/11 12:45:58;;;;;;;6.35;2.42;;;;;;;;;;5016161;28;20057;-75
2023/10/11 12:48:24;;;;;;;8.15;2.58;;;;;;;;;;5014866;28;20026;-76
2023/10/11 12:50:50;;;;;;;7.72;2.20;;;;;;;;;;5014790;28;20481;-75
2023/10/11 12:53:15;;;;;;;10.50;2.38;;;;;;;;;;5015958;28;20041;-75
2023/10/11 12:55:43;;;;;;;13.30;2.30;;;;;;;;;;5016711;28;20108;-75
2023/10/11 12:58:12;;;;;;;11.85;2.58;;;;;;;;;;5016263;28;20259;-76
2023/10/11 13:00:48;;;;;;;6.38;2.20;;;;;;;;;;5014551;28;20045;-75
2023/10/11 13:03:18;;;;;;;11.15;2.42;;;;;;;;;;5015870;28;20109;-76
2023/10/11 13:05:46;;;;;;;7.72;2.42;;;;;;;;;;5016089;28;20129;-75
2023/10/11 13:08:14;;;;;;;6.65;2.20;;;;;;;;;;5016064;28;20079;-75
2023/10/11 13:10:48;;;;;;;5.72;2.25;;;;;;;;;;5015769;28;20026;-76
2023/10/11 13:13:14;;;;;;;6.85;2.20;;;;;;;;;;5015591;28;20033;-76
2023/10/11 13:15:45;;;;;;;3.90;2.00;;;;;;;;;;5015710;28;20080;-75
2023/10/11 13:18:10;;;;;;;8.40;2.33;;;;;;;;;;5015630;28;20025;-76
2023/10/11 13:20:36;;;;;;;6.75;2.20;;;;;;;;;;5015589;28;20053;-75
2023/10/11 13:23:02;;;;;;;6.63;2.20;;;;;;;;;;5015451;28;20054;-76
2023/10/11 13:25:27;;;;;;;9.75;2.58;;;;;;;;;;5015003;28;20057;-75
2023/10/11 13:27:54;;;;;;;5.20;2.55;;;;;;;;;;5014194;28;20057;-75
2023/10/11 13:30:23;;;;;;;10.00;2.30;;;;;;;;;;5014064;28;20018;-76
2023/10/11 13:32:51;;;;;;;6.32;2.30;;;;;;;;;;5015227;28;20088;-76
2023/10/11 13:35:19;;;;;;;8.82;2.58;;;;;;;;;;5015490;28;20101;-75
2023/10/11 13:37:47;;;;;;;8.10;2.40;;;;;;;;;;5015066;28;20495;-75
2023/10/11 13:40:17;;;;;;;9.57;2.20;;;;;;;;;;5013780;28;20029;-76
2023/10/11 13:42:43;;;;;;;9.65;2.95;;;;;;;;;;5015038;28;20026;-76
2023/10/11 13:45:14;;;;;;;7.22;2.38;;;;;;;;;;5013860;28;20028;-75
2023/10/11 13:47:41;;;;;;;12.30;2.60;;;;;;;;;;5015125;28;20026;-75
2023/10/11 13:50:09;;;;;;;4.20;2.30;;;;;;;;;;5015039;28;20101;-75
2023/10/11 13:52:39;;;;;;;7.25;2.20;;;;;;;;;;5013594;28;20511;-75
2023/10/11 13:55:11;;;;;;;5.65;2.40;;;;;;;;;;5015179;28;20037;-75
2023/10/11 13:57:41;;;;;;;6.30;2.22;;;;;;;;;;5015195;28;20083;-76
2023/10/11 14:03:10;;;;;;;6.68;2.53;;;;;;;;;;5013727;28;20029;-76
2023/10/11 14:05:38;;;;;;;5.18;2.08;;;;;;;;;;5015017;28;20033;-76
2023/10/11 14:08:19;;;;;;;6.75;2.42;;;;;;;;;;5014701;28;20022;-76
2023/10/11 14:10:46;;;;;;;5.97;2.47;;;;;;;;;;5014599;28;20040;-75
2023/10/11 14:13:12;;;;;;;5.53;2.30;;;;;;;;;;5013186;28;20033;-75
2023/10/11 14:15:37;;;;;;;5.15;2.45;;;;;;;;;;5014484;28;20028;-75
2023/10/11 14:18:03;;;;;;;8.80;2.72;;;;;;;;;;5014471;28;20025;-76
2023/10/11 14:20:32;;;;;;;8.77;2.30;;;;;;;;;;5014434;28;20036;-76
2023/10/11 14:22:57;;;;;;;6.88;2.55;;;;;;;;;;5014311;28;20026;-76
2023/10/11 14:25:26;;;;;;;7.93;2.88;;;;;;;;;;5014363;28;20029;-75
2023/10/11 14:27:52;;;;;;;6.28;2.33;;;;;;;;;;5014311;28;20499;-75
2023/10/11 14:30:18;;;;;;;5.85;2.30;;;;;;;;;;5014368;28;20018;-76
2023/10/11 14:32:45;;;;;;;8.27;2.60;;;;;;;;;;5012911;28;20451;-75
2023/10/11 14:35:13;;;;;;;6.15;2.35;;;;;;;;;;5014191;28;20088;-75
2023/10/11 14:37:41;;;;;;;6.55;2.38;;;;;;;;;;5013412;28;20400;-76
2023/10/11 14:40:14;;;;;;;8.27;2.47;;;;;;;;;;5014325;28;20021;-75
2023/10/11 14:42:44;;;;;;;7.32;2.60;;;;;;;;;;5012755;28;20026;-75
2023/10/11 14:45:13;;;;;;;10.05;2.80;;;;;;;;;;5013932;28;20034;-76
2023/10/11 14:47:46;;;;;;;4.97;2.50;;;;;;;;;;5012644;28;20125;-76
2023/10/11 14:50:15;;;;;;;7.75;2.55;;;;;;;;;;5012661;28;20113;-76
2023/10/11 14:52:45;;;;;;;5.88;2.30;;;;;;;;;;5013778;28;20041;-76
2023/10/11 14:55:16;;;;;;;12.10;2.78;;;;;;;;;;5013853;28;20022;-76
2023/10/11 14:57:43;;;;;;;9.23;2.50;;;;;;;;;;5014155;28;20156;-76
2023/10/11 15:00:15;;;;;;;6.50;2.50;;;;;;;;;;5013927;28;20389;-76
2023/10/11 15:02:43;;;;;;;6.05;2.17;;;;;;;;;;5013626;28;20021;-75
2023/10/11 15:05:08;;;;;;;6.68;2.47;;;;;;;;;;5012269;28;20029;-75
2023/10/11 15:07:33;;;;;;;6.10;2.55;;;;;;;;;;5013704;28;20124;-76
2023/10/11 15:09:59;;;;;;;9.90;2.60;;;;;;;;;;5013556;28;20048;-76
2023/10/11 15:12:24;;;;;;;10.60;2.50;;;;;;;;;;5012218;28;20255;-76
2023/10/11 15:14:49;;;;;;;8.65;2.65;;;;;;;;;;5013427;28;20049;-76
2023/10/11 15:17:14;;;;;;;8.00;2.90;;;;;;;;;;5013620;28;20053;-76
2023/10/11 15:19:40;;;;;;;11.40;2.90;;;;;;;;;;5013819;28;20392;-76
2023/10/11 15:22:05;;;;;;;8.43;2.67;;;;;;;;;;5013214;28;20275;-76
2023/10/11 15:24:30;;;;;;;7.45;2.45;;;;;;;;;;5013425;28;20155;-76
2023/10/11 15:26:56;;;;;;;9.07;2.72;;;;;;;;;;5012732;28;20028;-76
2023/10/11 15:29:22;;;;;;;9.25;2.80;;;;;;;;;;5013416;28;20021;-76
2023/10/11 15:31:49;;;;;;;12.27;2.75;;;;;;;;;;5013721;28;20386;-76
2023/10/11 15:34:18;;;;;;;8.10;2.30;;;;;;;;;;5013240;28;20026;-76
2023/10/11 15:36:43;;;;;;;6.93;2.65;;;;;;;;;;5013149;28;20026;-76
2023/10/11 15:39:10;;;;;;;6.40;2.65;;;;;;;;;;5013147;28;20032;-76